Time;durP1;ratioP1;P1;durP2;ratioP2;P2;SDS_P1;SDS_P2;PMS_P1;PMS_P2;Temp;Humidity;BMP_temperature;BMP_pressure;BME280_temperature;BME280_humidity;BME280_pressure;Samples;Min_cycle;Max_cycle;Signal;HPM_P1;HPM_P2
2021/04/18 00:00:54;;;;;;;8.55;4.20;;;7.70;83.10;;;;;;6185262;23;20028;-80
2021/04/18 00:03:19;;;;;;;9.68;4.35;;;7.60;83.10;;;;;;6183686;23;20043;-80
2021/04/18 00:05:45;;;;;;;9.48;4.70;;;7.60;83.40;;;;;;6185121;23;20350;-80
2021/04/18 00:08:11;;;;;;;8.48;4.63;;;7.60;83.50;;;;;;6184880;23;20033;-80
2021/04/18 00:10:39;;;;;;;8.50;4.85;;;7.50;83.60;;;;;;6183854;23;20045;-81
2021/04/18 00:13:06;;;;;;;7.82;3.90;;;7.50;83.60;;;;;;6185383;23;20028;-81
2021/04/18 00:15:32;;;;;;;9.93;4.45;;;7.40;83.60;;;;;;6185096;23;20016;-81
2021/04/18 00:17:58;;;;;;;9.07;4.50;;;7.40;83.90;;;;;;6184308;23;20080;-81
2021/04/18 00:20:24;;;;;;;8.80;4.43;;;7.40;84.10;;;;;;6184771;23;20017;-81
2021/04/18 00:22:50;;;;;;;8.27;4.43;;;7.30;84.00;;;;;;6184629;23;20450;-80
2021/04/18 00:25:18;;;;;;;6.72;4.10;;;7.30;84.00;;;;;;6184018;23;20104;-81
2021/04/18 00:27:45;;;;;;;7.18;4.07;;;7.20;84.00;;;;;;6185254;23;20021;-80
2021/04/18 00:30:15;;;;;;;7.43;4.05;;;7.20;83.90;;;;;;6183758;23;20021;-81
2021/04/18 00:32:40;;;;;;;8.10;3.97;;;7.20;84.10;;;;;;6184364;23;20024;-80
2021/04/18 00:35:07;;;;;;;9.50;3.97;;;7.10;84.10;;;;;;6185170;23;20017;-80
2021/04/18 00:37:33;;;;;;;8.05;3.95;;;7.10;84.20;;;;;;6184509;23;20025;-80
2021/04/18 00:40:00;;;;;;;7.63;3.70;;;7.10;84.30;;;;;;6184987;23;20028;-80
2021/04/18 00:42:26;;;;;;;8.05;3.97;;;7.00;84.30;;;;;;6184971;23;20397;-80
2021/04/18 00:44:52;;;;;;;5.55;3.33;;;7.00;84.20;;;;;;6183768;23;20018;-79
2021/04/18 00:47:21;;;;;;;7.20;3.30;;;7.00;84.20;;;;;;6184651;23;20024;-80
2021/04/18 00:49:46;;;;;;;7.80;3.78;;;6.90;84.40;;;;;;6184836;23;20049;-80
2021/04/18 00:52:12;;;;;;;8.30;3.78;;;6.90;84.50;;;;;;6183687;23;20024;-80
2021/04/18 00:54:38;;;;;;;7.80;3.78;;;6.80;84.20;;;;;;6184572;23;20040;-80
2021/04/18 00:57:06;;;;;;;5.75;3.35;;;6.80;84.60;;;;;;6184528;23;20449;-80
2021/04/18 00:59:33;;;;;;;10.10;3.78;;;6.80;84.20;;;;;;6183712;23;20013;-80
2021/04/18 01:01:59;;;;;;;7.25;3.63;;;6.80;84.10;;;;;;6185062;23;20330;-80
2021/04/18 01:04:25;;;;;;;7.85;3.35;;;6.70;84.00;;;;;;6184041;23;20023;-80
2021/04/18 01:06:51;;;;;;;6.82;3.65;;;6.70;83.90;;;;;;6182908;23;20049;-81
2021/04/18 01:09:17;;;;;;;7.32;3.50;;;6.60;84.10;;;;;;6184640;23;20024;-80
2021/04/18 01:11:42;;;;;;;8.70;3.65;;;6.60;84.50;;;;;;6184166;23;20084;-80
2021/04/18 01:14:08;;;;;;;8.20;3.65;;;6.60;84.70;;;;;;6183224;23;20486;-80
2021/04/18 01:16:34;;;;;;;9.13;3.95;;;6.50;84.90;;;;;;6184234;23;20112;-80
2021/04/18 01:19:00;;;;;;;8.60;3.75;;;6.60;85.20;;;;;;6184501;23;20021;-80
2021/04/18 01:21:29;;;;;;;9.85;4.05;;;6.50;85.20;;;;;;6157319;23;20330;-80
2021/04/18 01:23:54;;;;;;;7.32;3.80;;;6.50;85.20;;;;;;6184646;23;20020;-79
2021/04/18 01:26:20;;;;;;;8.90;4.25;;;6.50;85.20;;;;;;6184581;23;20307;-80
2021/04/18 01:28:46;;;;;;;10.93;4.75;;;6.50;85.30;;;;;;6184040;23;20532;-80
2021/04/18 01:31:12;;;;;;;9.75;3.83;;;6.40;85.40;;;;;;6184092;23;20021;-80
2021/04/18 01:33:38;;;;;;;8.00;4.00;;;6.40;85.40;;;;;;6185027;23;20017;-81
2021/04/18 01:36:05;;;;;;;11.48;4.53;;;6.40;86.00;;;;;;6186546;23;20017;-81
2021/04/18 01:38:31;;;;;;;8.60;4.13;;;6.40;85.10;;;;;;6186360;23;20096;-81
2021/04/18 01:41:01;;;;;;;10.18;4.30;;;6.40;85.20;;;;;;6185767;23;20025;-81
2021/04/18 01:43:27;;;;;;;9.48;4.40;;;6.40;85.50;;;;;;6186167;23;20013;-80
2021/04/18 01:45:53;;;;;;;9.02;4.72;;;6.40;85.30;;;;;;6186096;23;20520;-80
2021/04/18 01:48:20;;;;;;;7.72;5.03;;;6.30;85.20;;;;;;6185316;23;20017;-81
2021/04/18 01:50:48;;;;;;;10.45;5.07;;;6.30;85.20;;;;;;6185913;23;20017;-80
2021/04/18 01:53:14;;;;;;;8.70;4.60;;;6.30;85.20;;;;;;6185876;23;20533;-80
2021/04/18 01:55:40;;;;;;;7.35;4.07;;;6.30;85.10;;;;;;6185746;23;20071;-80
2021/04/18 01:58:06;;;;;;;8.98;4.40;;;6.30;85.10;;;;;;6186575;23;20091;-80
2021/04/18 02:00:33;;;;;;;7.80;4.60;;;6.30;85.20;;;;;;6185989;23;20044;-81
2021/04/18 02:02:59;;;;;;;7.85;4.38;;;6.20;84.90;;;;;;6185719;23;20099;-80
2021/04/18 02:05:28;;;;;;;5.78;3.85;;;6.30;85.20;;;;;;6186276;23;20013;-80
2021/04/18 02:07:54;;;;;;;8.88;4.60;;;6.20;84.90;;;;;;6186171;23;20021;-81
2021/04/18 02:10:19;;;;;;;7.05;4.38;;;6.20;85.20;;;;;;6184873;23;20389;-80
2021/04/18 02:12:46;;;;;;;7.18;4.53;;;6.20;85.00;;;;;;6186433;23;20101;-81
2021/04/18 02:15:12;;;;;;;8.10;4.95;;;6.20;84.80;;;;;;6185687;23;20039;-80
2021/04/18 02:17:38;;;;;;;6.72;4.20;;;6.10;84.80;;;;;;6185270;23;20063;-80
2021/04/18 02:20:06;;;;;;;6.95;4.60;;;6.10;85.00;;;;;;6185916;23;20092;-80
2021/04/18 02:22:32;;;;;;;7.93;4.63;;;6.10;84.90;;;;;;6185961;23;20036;-81
2021/04/18 02:24:58;;;;;;;6.75;4.57;;;6.10;84.70;;;;;;6185123;23;20130;-80
2021/04/18 02:27:26;;;;;;;6.85;4.70;;;6.10;84.60;;;;;;6186161;23;20014;-80
2021/04/18 02:30:28;;;;;;;8.13;4.90;;;6.00;84.90;;;;;;6184489;23;20051;-80
2021/04/18 02:33:00;;;;;;;7.32;4.60;;;6.00;85.10;;;;;;6178065;23;20017;-80
2021/04/18 02:35:35;;;;;;;7.22;4.70;;;6.00;85.10;;;;;;6185516;23;20476;-81
2021/04/18 02:38:00;;;;;;;6.22;4.35;;;6.00;84.70;;;;;;6184827;23;20052;-80
2021/04/18 02:40:27;;;;;;;7.00;5.10;;;5.90;84.70;;;;;;6185359;23;20019;-81
2021/04/18 02:42:52;;;;;;;7.70;5.10;;;6.00;85.10;;;;;;6186090;23;20403;-79
2021/04/18 02:45:18;;;;;;;6.95;4.80;;;5.90;85.60;;;;;;6184605;23;20145;-80
2021/04/18 02:47:44;;;;;;;6.90;4.57;;;5.90;86.00;;;;;;6185463;23;20025;-80
2021/04/18 02:50:12;;;;;;;7.90;4.80;;;5.90;86.60;;;;;;6185537;23;20095;-80
2021/04/18 02:52:38;;;;;;;6.63;4.82;;;5.90;86.00;;;;;;6184995;23;20021;-81
2021/04/18 02:55:04;;;;;;;6.45;4.65;;;5.90;86.10;;;;;;6185712;23;20469;-80
2021/04/18 02:57:30;;;;;;;7.13;4.72;;;5.90;86.10;;;;;;6185536;23;20333;-80
2021/04/18 02:59:56;;;;;;;6.85;4.88;;;5.90;86.10;;;;;;6184992;23;20063;-80
2021/04/18 03:02:22;;;;;;;6.57;4.35;;;5.80;86.20;;;;;;6185654;23;20021;-80
2021/04/18 03:04:48;;;;;;;6.60;4.38;;;5.80;86.30;;;;;;6185875;23;20064;-80
2021/04/18 03:07:13;;;;;;;6.72;4.45;;;5.80;86.00;;;;;;6183906;23;20089;-80
2021/04/18 03:09:39;;;;;;;7.15;4.57;;;5.80;85.90;;;;;;6185663;23;20020;-81
2021/04/18 03:12:06;;;;;;;5.88;4.00;;;5.80;85.90;;;;;;6184963;23;20524;-80
2021/04/18 03:14:31;;;;;;;7.38;4.38;;;5.70;85.80;;;;;;6185208;23;20357;-81
2021/04/18 03:16:57;;;;;;;6.78;4.57;;;5.70;85.90;;;;;;6185880;23;20024;-81
2021/04/18 03:19:23;;;;;;;9.20;5.00;;;5.70;85.90;;;;;;6184664;23;20067;-80
2021/04/18 03:21:48;;;;;;;7.28;4.47;;;5.70;86.00;;;;;;6185816;23;20017;-81
2021/04/18 03:24:14;;;;;;;9.13;5.00;;;5.70;86.00;;;;;;6184920;23;20473;-80
2021/04/18 03:26:40;;;;;;;7.65;5.15;;;5.60;86.00;;;;;;6184249;23;20020;-80
2021/04/18 03:29:08;;;;;;;8.75;4.80;;;5.60;86.20;;;;;;6159116;23;20063;-80
2021/04/18 03:31:34;;;;;;;10.23;5.53;;;5.60;86.10;;;;;;6184943;23;20430;-80
2021/04/18 03:33:59;;;;;;;6.72;4.47;;;5.60;86.10;;;;;;6183880;23;20021;-79
2021/04/18 03:36:25;;;;;;;7.72;4.90;;;5.60;86.30;;;;;;6185368;23;20039;-80
2021/04/18 03:38:51;;;;;;;8.13;5.18;;;5.60;86.20;;;;;;6185452;23;20021;-81
2021/04/18 03:41:17;;;;;;;8.82;4.90;;;5.50;86.00;;;;;;6183413;23;20465;-80
2021/04/18 03:43:43;;;;;;;7.95;5.35;;;5.50;85.80;;;;;;6185479;23;20027;-80
2021/04/18 03:46:08;;;;;;;7.90;5.03;;;5.50;85.80;;;;;;6184972;23;20017;-80
2021/04/18 03:48:34;;;;;;;9.43;5.50;;;5.50;85.80;;;;;;6184184;23;20454;-81
2021/04/18 03:51:01;;;;;;;8.45;4.88;;;5.50;85.80;;;;;;6185670;23;20037;-80
2021/04/18 03:53:26;;;;;;;8.18;5.32;;;5.40;86.10;;;;;;6185152;23;20349;-80
2021/04/18 03:55:52;;;;;;;10.65;5.85;;;5.40;85.90;;;;;;6184564;23;20013;-80
2021/04/18 03:58:18;;;;;;;9.18;4.90;;;5.40;86.10;;;;;;6184680;23;20033;-81
2021/04/18 04:00:43;;;;;;;8.00;4.70;;;5.40;86.40;;;;;;6185596;23;20460;-80
2021/04/18 04:03:09;;;;;;;8.77;5.28;;;5.40;85.70;;;;;;6182965;23;20097;-80
2021/04/18 04:05:35;;;;;;;10.00;5.40;;;5.30;85.80;;;;;;6185670;23;20021;-81
2021/04/18 04:08:01;;;;;;;8.55;5.43;;;5.30;86.00;;;;;;6184723;23;20379;-79
2021/04/18 04:10:26;;;;;;;8.25;4.82;;;5.30;86.10;;;;;;6183463;23;20446;-80
2021/04/18 04:12:52;;;;;;;7.50;4.65;;;5.30;86.20;;;;;;6185309;23;20086;-80
2021/04/18 04:15:18;;;;;;;7.82;4.93;;;5.20;85.90;;;;;;6184235;23;20385;-80
2021/04/18 04:17:43;;;;;;;6.53;4.60;;;5.20;86.40;;;;;;6185303;23;20044;-80
2021/04/18 04:20:10;;;;;;;8.57;4.32;;;5.20;86.60;;;;;;6185126;23;20017;-80
2021/04/18 04:22:36;;;;;;;7.55;4.50;;;5.20;86.50;;;;;;6184117;23;20021;-80
2021/04/18 04:25:02;;;;;;;7.30;4.10;;;5.20;86.30;;;;;;6185025;23;20476;-80
2021/04/18 04:27:27;;;;;;;7.88;4.50;;;5.20;86.20;;;;;;6184428;23;20020;-80
2021/04/18 04:29:53;;;;;;;8.43;4.15;;;5.20;86.40;;;;;;6183757;23;20644;-80
2021/04/18 04:32:19;;;;;;;8.20;4.55;;;5.20;86.30;;;;;;6183670;23;20064;-80
2021/04/18 04:34:45;;;;;;;7.57;4.60;;;5.10;86.40;;;;;;6184445;23;20025;-80
2021/04/18 04:37:10;;;;;;;6.22;3.97;;;5.20;86.80;;;;;;6183842;23;20333;-80
2021/04/18 04:39:36;;;;;;;7.13;4.55;;;5.10;86.80;;;;;;6185043;23;20095;-80
2021/04/18 04:42:02;;;;;;;7.28;4.38;;;5.10;87.00;;;;;;6184947;23;20311;-80
2021/04/18 04:44:29;;;;;;;7.25;4.32;;;5.10;86.90;;;;;;6183804;23;20092;-80
2021/04/18 04:46:55;;;;;;;6.00;3.95;;;5.10;86.90;;;;;;6185173;23;20353;-80
2021/04/18 04:49:22;;;;;;;7.97;4.22;;;5.10;87.00;;;;;;6184435;23;20461;-80
2021/04/18 04:51:47;;;;;;;7.28;4.03;;;5.10;87.00;;;;;;6184082;23;20017;-80
2021/04/18 04:54:13;;;;;;;7.35;3.95;;;5.10;86.70;;;;;;6184667;23;20076;-80
2021/04/18 04:56:39;;;;;;;7.65;4.35;;;5.10;86.60;;;;;;6184594;23;20040;-80
2021/04/18 04:59:04;;;;;;;8.27;4.10;;;5.00;86.30;;;;;;6184433;23;20021;-80
2021/04/18 05:01:30;;;;;;;6.80;3.95;;;5.00;86.30;;;;;;6184773;23;20020;-80
2021/04/18 05:03:56;;;;;;;8.27;3.97;;;5.00;86.30;;;;;;6184986;23;20021;-80
2021/04/18 05:06:21;;;;;;;7.80;4.15;;;5.00;86.10;;;;;;6184204;23;20017;-80
2021/04/18 05:08:47;;;;;;;6.80;4.28;;;5.00;86.10;;;;;;6185692;23;20455;-81
2021/04/18 05:11:13;;;;;;;6.32;3.88;;;5.00;86.30;;;;;;6186777;23;20084;-80
2021/04/18 05:13:39;;;;;;;8.18;3.95;;;4.90;86.30;;;;;;6186252;23;20044;-80
2021/04/18 05:16:05;;;;;;;7.95;4.60;;;4.90;86.20;;;;;;6186994;23;20092;-81
2021/04/18 05:18:31;;;;;;;7.72;4.05;;;4.90;86.00;;;;;;6186343;23;20024;-80
2021/04/18 05:20:56;;;;;;;7.07;4.07;;;4.90;86.10;;;;;;6186811;23;20333;-80
2021/04/18 05:23:22;;;;;;;7.40;3.78;;;4.90;86.10;;;;;;6186712;23;20442;-80
2021/04/18 05:25:48;;;;;;;6.32;3.63;;;4.90;86.20;;;;;;6186196;23;20013;-80
2021/04/18 05:28:13;;;;;;;7.57;4.10;;;4.90;86.20;;;;;;6186234;23;20390;-80
2021/04/18 05:30:39;;;;;;;6.38;3.70;;;4.90;86.10;;;;;;6186716;23;20021;-80
2021/04/18 05:33:05;;;;;;;6.60;3.80;;;4.80;86.00;;;;;;6185362;23;20079;-80
2021/04/18 05:35:30;;;;;;;7.57;4.00;;;4.80;86.00;;;;;;6184650;23;20074;-80
2021/04/18 05:37:56;;;;;;;6.07;3.78;;;4.80;86.00;;;;;;6186574;23;20072;-80
2021/04/18 05:40:21;;;;;;;6.22;3.45;;;4.80;86.10;;;;;;6185107;23;20100;-80
2021/04/18 05:42:47;;;;;;;6.22;3.60;;;4.80;86.10;;;;;;6187098;23;20071;-81
2021/04/18 05:45:13;;;;;;;6.65;3.80;;;4.80;86.10;;;;;;6186886;23;20099;-81
2021/04/18 05:47:41;;;;;;;6.68;3.97;;;4.80;86.20;;;;;;6185953;23;20020;-81
2021/04/18 05:50:07;;;;;;;5.32;3.40;;;4.80;86.80;;;;;;6186703;23;20028;-80
2021/04/18 05:52:33;;;;;;;5.63;3.50;;;4.80;86.70;;;;;;6185915;23;20350;-82
2021/04/18 05:54:58;;;;;;;5.60;3.40;;;4.80;86.60;;;;;;6185315;23;20017;-80
2021/04/18 05:57:24;;;;;;;5.97;3.25;;;4.80;86.70;;;;;;6186052;23;20048;-80
2021/04/18 05:59:52;;;;;;;5.63;3.28;;;4.90;86.80;;;;;;6185149;23;20088;-81
2021/04/18 06:02:18;;;;;;;6.00;3.10;;;4.80;86.70;;;;;;6183365;23;20099;-81
2021/04/18 06:04:44;;;;;;;4.93;3.15;;;4.90;86.40;;;;;;6186139;23;20024;-80
2021/04/18 06:07:09;;;;;;;4.95;2.90;;;4.90;86.50;;;;;;6184835;23;20075;-81
2021/04/18 06:09:35;;;;;;;4.63;2.90;;;4.90;86.30;;;;;;6185266;23;20052;-81
2021/04/18 06:12:01;;;;;;;5.95;3.15;;;4.90;86.30;;;;;;6186255;23;20025;-81
2021/04/18 06:14:27;;;;;;;5.15;2.80;;;4.90;86.30;;;;;;6185364;23;20083;-81
2021/04/18 06:16:55;;;;;;;4.72;2.70;;;4.90;86.20;;;;;;6182141;23;20089;-80
2021/04/18 06:19:21;;;;;;;4.57;2.97;;;4.90;86.10;;;;;;6184529;23;20481;-81
2021/04/18 06:21:47;;;;;;;4.40;2.65;;;4.90;85.70;;;;;;6186488;23;20016;-81
2021/04/18 06:24:15;;;;;;;4.45;2.72;;;5.00;85.80;;;;;;6185730;23;20430;-81
2021/04/18 06:26:41;;;;;;;5.40;3.10;;;5.00;85.90;;;;;;6186491;23;20017;-81
2021/04/18 06:29:06;;;;;;;5.63;3.03;;;5.00;86.20;;;;;;6185438;23;20028;-81
2021/04/18 06:31:32;;;;;;;4.80;2.75;;;5.00;86.40;;;;;;6186105;23;20021;-81
2021/04/18 06:33:57;;;;;;;5.53;2.90;;;5.00;86.40;;;;;;6186105;23;20025;-81
2021/04/18 06:36:26;;;;;;;4.63;2.47;;;5.10;86.30;;;;;;6185418;23;20024;-81
2021/04/18 06:38:51;;;;;;;5.78;3.50;;;5.10;86.20;;;;;;6186541;23;20013;-81
2021/04/18 06:41:22;;;;;;;4.47;2.80;;;5.10;86.30;;;;;;6186366;23;20024;-81
2021/04/18 06:43:50;;;;;;;7.45;2.72;;;5.20;86.50;;;;;;6185796;23;20013;-81
2021/04/18 06:46:19;;;;;;;7.25;3.75;;;5.20;86.10;;;;;;6186018;23;20092;-81
2021/04/18 06:48:46;;;;;;;5.30;3.13;;;5.30;86.10;;;;;;6186106;23;20068;-81
2021/04/18 06:51:12;;;;;;;5.40;2.90;;;5.30;86.40;;;;;;6185175;23;20017;-81
2021/04/18 06:53:38;;;;;;;8.00;4.15;;;5.40;86.50;;;;;;6186594;23;20333;-81
2021/04/18 06:56:05;;;;;;;4.93;2.70;;;5.50;86.60;;;;;;6186485;23;20013;-81
2021/04/18 06:58:32;;;;;;;7.13;4.10;;;5.50;86.30;;;;;;6185099;23;20028;-81
2021/04/18 07:00:59;;;;;;;6.93;3.13;;;5.60;86.50;;;;;;6186327;23;20013;-81
2021/04/18 07:03:25;;;;;;;4.97;2.58;;;5.70;86.20;;;;;;6186109;23;20025;-81
2021/04/18 07:05:57;;;;;;;11.55;6.22;;;5.70;85.90;;;;;;6184976;23;20496;-81
2021/04/18 07:08:27;;;;;;;13.63;5.90;;;5.70;86.30;;;;;;6185475;23;20020;-82
2021/04/18 07:11:18;;;;;;;8.98;5.97;;;5.70;86.50;;;;;;6186377;23;20017;-84
2021/04/18 07:13:45;;;;;;;12.00;6.60;;;5.80;86.70;;;;;;6186484;23;20365;-83
2021/04/18 07:16:33;;;;;;;9.93;6.15;;;5.80;87.00;;;;;;6184647;23;20397;-83
2021/04/18 07:18:59;;;;;;;13.63;7.65;;;5.90;87.50;;;;;;6184255;23;20480;-82
2021/04/18 07:21:45;;;;;;;9.95;5.55;;;6.00;87.60;;;;;;6184883;23;20017;-82
2021/04/18 07:24:11;;;;;;;12.23;7.30;;;6.10;87.50;;;;;;6184128;23;20013;-82
2021/04/18 07:26:37;;;;;;;9.82;5.88;;;6.20;87.50;;;;;;6183695;23;20028;-82
2021/04/18 07:29:20;;;;;;;9.43;4.82;;;6.30;87.40;;;;;;6184358;23;20021;-82
2021/04/18 07:31:47;;;;;;;11.73;5.80;;;6.30;87.20;;;;;;6184107;23;20025;-83
2021/04/18 07:34:14;;;;;;;10.57;5.97;;;6.30;87.10;;;;;;6182531;23;20413;-82
2021/04/18 07:36:43;;;;;;;9.57;5.32;;;6.40;87.20;;;;;;6184739;23;20017;-82
2021/04/18 07:39:11;;;;;;;14.52;8.80;;;6.50;87.20;;;;;;6184343;23;20016;-83
2021/04/18 07:41:43;;;;;;;13.48;8.18;;;6.70;87.60;;;;;;6183446;23;20079;-83
2021/04/18 07:44:14;;;;;;;13.52;7.35;;;6.70;87.70;;;;;;6184006;23;20450;-82
2021/04/18 07:47:00;;;;;;;11.10;6.32;;;6.90;87.70;;;;;;6182992;23;20532;-83
2021/04/18 07:49:30;;;;;;;9.70;6.15;;;7.00;87.60;;;;;;6184234;23;20099;-81
2021/04/18 07:51:57;;;;;;;13.07;6.63;;;7.10;87.20;;;;;;6184134;23;20025;-82
2021/04/18 07:54:23;;;;;;;13.80;7.07;;;7.20;86.60;;;;;;6183137;23;20080;-82
2021/04/18 07:56:52;;;;;;;14.35;7.15;;;7.30;86.50;;;;;;6184492;23;20358;-82
2021/04/18 07:59:21;;;;;;;14.32;8.05;;;7.50;86.50;;;;;;6184247;23;20027;-82
2021/04/18 08:01:49;;;;;;;12.02;6.65;;;7.60;86.70;;;;;;6183374;23;20028;-82
2021/04/18 08:04:17;;;;;;;15.95;7.30;;;7.80;86.50;;;;;;6184108;23;20020;-82
2021/04/18 08:06:43;;;;;;;12.05;6.90;;;7.90;85.90;;;;;;6184264;23;20091;-81
2021/04/18 08:09:19;;;;;;;15.57;6.95;;;8.10;85.50;;;;;;6183555;23;20017;-81
2021/04/18 08:12:08;;;;;;;10.88;6.00;;;8.20;84.70;;;;;;6184767;23;20016;-81
2021/04/18 08:14:35;;;;;;;12.88;6.80;;;8.40;84.10;;;;;;6184455;23;20024;-82
2021/04/18 08:17:09;;;;;;;13.40;7.07;;;8.40;83.90;;;;;;6184799;23;20342;-81
2021/04/18 08:19:36;;;;;;;10.02;6.05;;;8.50;83.30;;;;;;6185209;23;20024;-81
2021/04/18 08:22:03;;;;;;;12.70;6.65;;;8.60;83.20;;;;;;6184450;23;20021;-82
2021/04/18 08:24:30;;;;;;;11.38;5.80;;;8.70;83.10;;;;;;6184761;23;20021;-82
2021/04/18 08:27:04;;;;;;;11.75;6.22;;;8.80;82.70;;;;;;6184612;23;20091;-83
2021/04/18 08:29:31;;;;;;;11.05;5.88;;;8.90;82.50;;;;;;6184120;23;20017;-83
2021/04/18 08:32:02;;;;;;;14.70;6.10;;;8.90;82.30;;;;;;6185404;23;20084;-81
2021/04/18 08:34:29;;;;;;;12.65;5.90;;;9.00;82.20;;;;;;6184196;23;20025;-82
2021/04/18 08:36:57;;;;;;;11.02;5.95;;;9.10;81.90;;;;;;6184754;23;20017;-81
2021/04/18 08:39:32;;;;;;;14.07;6.05;;;9.20;81.70;;;;;;6184753;23;20476;-82
2021/04/18 08:42:01;;;;;;;12.25;6.43;;;9.20;81.40;;;;;;6185316;23;20017;-81
2021/04/18 08:44:37;;;;;;;11.57;6.28;;;9.30;81.30;;;;;;6183585;23;20036;-83
2021/04/18 08:47:04;;;;;;;12.75;6.32;;;9.40;80.60;;;;;;6185010;23;20090;-82
2021/04/18 08:49:36;;;;;;;11.00;5.72;;;9.40;80.00;;;;;;6184785;23;20017;-83
2021/04/18 08:52:13;;;;;;;14.45;6.57;;;9.50;80.00;;;;;;6185375;23;20013;-82
2021/04/18 08:54:42;;;;;;;12.15;6.80;;;9.60;79.70;;;;;;6185269;23;20021;-83
2021/04/18 08:57:22;;;;;;;10.68;6.32;;;9.60;79.60;;;;;;6184351;23;20019;-81
2021/04/18 08:59:54;;;;;;;13.00;6.05;;;9.70;79.50;;;;;;6185356;23;20096;-82
2021/04/18 09:02:20;;;;;;;14.02;6.55;;;9.80;79.40;;;;;;6184398;23;20016;-82
2021/04/18 09:04:48;;;;;;;10.57;6.03;;;9.80;79.00;;;;;;6183926;23;20021;-81
2021/04/18 09:07:20;;;;;;;11.57;6.50;;;9.90;79.30;;;;;;6184824;23;20024;-81
2021/04/18 09:09:47;;;;;;;14.48;6.40;;;10.00;79.40;;;;;;6183445;23;20021;-80
2021/04/18 09:12:16;;;;;;;14.85;6.63;;;10.10;79.00;;;;;;6184003;23;20017;-81
2021/04/18 09:14:49;;;;;;;12.68;5.85;;;10.20;78.30;;;;;;6185341;23;20028;-81
2021/04/18 09:17:24;;;;;;;10.50;5.63;;;10.30;78.30;;;;;;6184668;23;20036;-82
2021/04/18 09:19:54;;;;;;;9.70;5.78;;;10.40;77.80;;;;;;6184389;23;20075;-81
2021/04/18 09:22:33;;;;;;;11.95;6.18;;;10.50;77.70;;;;;;6184912;23;20021;-81
2021/04/18 09:25:18;;;;;;;13.95;6.38;;;10.70;76.90;;;;;;6184162;23;20017;-80
2021/04/18 09:27:52;;;;;;;14.52;5.95;;;10.80;77.30;;;;;;6185475;23;20032;-81
2021/04/18 09:30:21;;;;;;;15.43;6.38;;;11.00;77.30;;;;;;6184694;23;20021;-81
2021/04/18 09:32:49;;;;;;;12.32;6.50;;;11.10;77.20;;;;;;6184409;23;20386;-80
2021/04/18 09:35:17;;;;;;;12.50;6.05;;;11.30;77.60;;;;;;6184151;23;20100;-84
2021/04/18 09:38:04;;;;;;;11.63;6.15;;;11.40;77.50;;;;;;6184437;23;20013;-81
2021/04/18 09:40:36;;;;;;;10.60;6.05;;;11.50;76.20;;;;;;6182927;23;20088;-83
2021/04/18 09:43:05;;;;;;;10.48;5.57;;;11.70;76.30;;;;;;6183957;23;20020;-81
2021/04/18 09:45:33;;;;;;;9.43;5.72;;;11.70;76.60;;;;;;6183821;23;20040;-82
2021/04/18 09:48:14;;;;;;;10.23;5.53;;;11.80;76.90;;;;;;6181947;23;20378;-82
2021/04/18 09:50:41;;;;;;;11.25;5.72;;;11.90;76.70;;;;;;6184610;23;20028;-80
2021/04/18 09:53:29;;;;;;;11.82;5.55;;;11.90;76.70;;;;;;6183457;23;20083;-79
2021/04/18 09:56:00;;;;;;;12.93;5.68;;;12.00;76.00;;;;;;6186738;23;20045;-83
2021/04/18 09:58:33;;;;;;;9.82;5.47;;;12.10;75.30;;;;;;6184562;23;20021;-82
2021/04/18 10:01:00;;;;;;;11.93;5.82;;;12.20;75.10;;;;;;6184781;23;20414;-82
2021/04/18 10:03:36;;;;;;;16.98;6.05;;;12.30;75.80;;;;;;6185926;23;20400;-81
2021/04/18 10:06:02;;;;;;;13.15;6.20;;;12.40;77.00;;;;;;6186464;23;20013;-80
2021/04/18 10:08:31;;;;;;;13.07;6.05;;;12.50;76.40;;;;;;6184875;23;20020;-81
2021/04/18 10:11:05;;;;;;;11.35;5.10;;;12.50;75.90;;;;;;6186573;23;20039;-81
2021/04/18 10:13:41;;;;;;;10.95;5.88;;;12.60;74.80;;;;;;6186223;23;20028;-81
2021/04/18 10:16:08;;;;;;;12.73;5.65;;;12.70;75.00;;;;;;6185597;23;20017;-81
2021/04/18 10:18:35;;;;;;;9.40;5.15;;;12.80;74.80;;;;;;6185708;23;20017;-81
2021/04/18 10:21:18;;;;;;;12.00;5.03;;;12.90;74.00;;;;;;6183686;23;20044;-80
2021/04/18 10:23:44;;;;;;;10.48;4.57;;;13.10;72.90;;;;;;6185166;23;20092;-83
2021/04/18 10:26:10;;;;;;;12.60;5.43;;;13.20;72.10;;;;;;6185974;23;20040;-82
2021/04/18 10:28:36;;;;;;;10.32;4.35;;;13.30;72.40;;;;;;6185006;23;20496;-84
2021/04/18 10:31:02;;;;;;;8.45;4.50;;;13.40;70.70;;;;;;6186233;23;20333;-84
2021/04/18 10:33:28;;;;;;;9.27;4.32;;;13.40;70.20;;;;;;6184362;23;20028;-85
2021/04/18 10:35:57;;;;;;;8.45;4.80;;;13.50;70.40;;;;;;6184348;23;20017;-85
2021/04/18 10:38:23;;;;;;;11.43;5.05;;;13.60;70.10;;;;;;6186289;23;20290;-84
2021/04/18 10:40:49;;;;;;;9.20;5.10;;;13.60;70.10;;;;;;6186191;23;20090;-83
2021/04/18 10:43:15;;;;;;;10.40;5.20;;;13.70;69.20;;;;;;6184091;23;20022;-83
2021/04/18 10:45:41;;;;;;;8.23;4.55;;;13.80;68.80;;;;;;6185169;23;20023;-84
2021/04/18 10:48:07;;;;;;;9.85;4.75;;;13.90;68.10;;;;;;6185435;23;20063;-83
2021/04/18 10:50:33;;;;;;;9.48;4.82;;;14.00;69.20;;;;;;6184162;23;20043;-83
2021/04/18 10:52:59;;;;;;;10.65;5.13;;;14.10;68.10;;;;;;6184962;23;20063;-83
2021/04/18 10:55:25;;;;;;;9.85;4.70;;;14.20;68.20;;;;;;6185887;23;20017;-84
2021/04/18 10:57:51;;;;;;;12.82;4.75;;;14.30;68.90;;;;;;6185199;23;20464;-88
2021/04/18 11:00:17;;;;;;;10.90;4.60;;;14.40;68.30;;;;;;6185824;23;20013;-85
2021/04/18 11:02:43;;;;;;;8.90;4.60;;;14.40;68.90;;;;;;6185636;23;20427;-85
2021/04/18 11:05:09;;;;;;;12.35;4.72;;;14.50;69.70;;;;;;6183744;23;20024;-83
2021/04/18 11:07:35;;;;;;;12.52;4.80;;;14.60;70.80;;;;;;6185819;23;20023;-86
2021/04/18 11:10:01;;;;;;;8.35;4.45;;;14.70;70.10;;;;;;6186172;23;20048;-85
2021/04/18 11:12:27;;;;;;;8.15;4.43;;;14.70;69.50;;;;;;6184514;23;20345;-86
2021/04/18 11:17:28;;;;;;;8.55;3.90;;;14.90;67.10;;;;;;6153795;23;20025;-85
2021/04/18 11:20:12;;;;;;;9.02;3.55;;;15.00;67.50;;;;;;6156208;23;20017;-86
2021/04/18 11:22:46;;;;;;;9.05;3.47;;;15.10;65.30;;;;;;6156030;23;20485;-86
2021/04/18 11:25:13;;;;;;;8.35;3.10;;;15.20;65.20;;;;;;6155149;23;20061;-86
2021/04/18 11:27:39;;;;;;;9.95;3.53;;;15.30;64.00;;;;;;6156481;23;20050;-88
2021/04/18 11:30:13;;;;;;;8.30;3.40;;;15.30;64.30;;;;;;6156620;23;20021;-86
2021/04/18 11:32:51;;;;;;;7.30;3.45;;;15.40;64.90;;;;;;6155612;23;20454;-86
2021/04/18 11:35:32;;;;;;;7.28;3.17;;;15.50;67.40;;;;;;6157835;23;20079;-87
2021/04/18 11:38:12;;;;;;;8.27;3.35;;;15.60;66.30;;;;;;6157293;23;20013;-87
2021/04/18 11:40:58;;;;;;;7.93;2.92;;;15.70;64.00;;;;;;6155511;23;20018;-87
2021/04/18 11:44:01;;;;;;;8.50;2.90;;;15.80;64.70;;;;;;6156279;23;20056;-87
2021/04/18 11:47:33;;;;;;;8.07;2.83;;;15.80;66.50;;;;;;6155398;23;20021;-87
2021/04/18 11:50:28;;;;;;;6.13;2.88;;;15.90;64.70;;;;;;6008797;23;20027;-86
2021/04/18 11:53:14;;;;;;;9.52;2.90;;;16.00;67.30;;;;;;5951910;24;20430;-86
2021/04/18 11:56:00;;;;;;;6.10;2.92;;;16.10;63.40;;;;;;5952795;24;20021;-87
2021/04/18 11:58:32;;;;;;;6.82;3.25;;;16.10;63.50;;;;;;5952158;24;20020;-87
2021/04/18 12:01:04;;;;;;;8.60;2.92;;;16.20;64.00;;;;;;5951652;24;20513;-87
2021/04/18 12:03:30;;;;;;;6.90;2.72;;;16.20;64.40;;;;;;5952269;24;20020;-87
2021/04/18 12:06:03;;;;;;;6.88;3.08;;;16.40;62.90;;;;;;5978931;23;20031;-86
2021/04/18 12:08:29;;;;;;;9.65;2.70;;;16.40;63.40;;;;;;6007250;23;20023;-86
2021/04/18 12:14:50;;;;;;;7.93;2.90;;;16.40;61.80;;;;;;6007171;23;20572;-87
2021/04/18 12:17:19;;;;;;;6.30;3.20;;;16.40;62.40;;;;;;6007827;23;20027;-86
2021/04/18 12:20:08;;;;;;;8.00;3.17;;;16.50;61.20;;;;;;6008618;23;20090;-86
2021/04/18 12:23:01;;;;;;;7.53;3.40;;;16.50;62.30;;;;;;6007207;23;20019;-86
2021/04/18 12:26:17;;;;;;;7.00;3.67;;;16.50;64.00;;;;;;6006026;23;20133;-86
2021/04/18 12:28:43;;;;;;;8.07;3.67;;;16.60;63.00;;;;;;6042967;23;20744;-85
2021/04/18 12:31:27;;;;;;;9.07;4.00;;;16.60;60.80;;;;;;6153826;23;20021;-86
2021/04/18 12:33:53;;;;;;;6.57;3.30;;;16.60;62.10;;;;;;6154795;23;20017;-87
2021/04/18 12:36:19;;;;;;;10.93;4.10;;;16.70;64.70;;;;;;6154297;23;20072;-87
2021/04/18 12:39:06;;;;;;;7.68;3.85;;;16.80;63.80;;;;;;6154748;23;20327;-87
2021/04/18 12:41:33;;;;;;;6.47;3.45;;;16.90;65.90;;;;;;6155020;23;20076;-87
2021/04/18 12:44:05;;;;;;;6.95;3.30;;;16.90;67.50;;;;;;6154376;23;20024;-91
2021/04/18 12:46:30;;;;;;;8.15;4.00;;;17.00;68.70;;;;;;6155974;23;20494;-90
2021/04/18 12:48:56;;;;;;;9.85;4.22;;;17.10;67.80;;;;;;6161551;23;20029;-89
2021/04/18 12:51:25;;;;;;;9.52;4.28;;;17.20;66.50;;;;;;6160322;23;20345;-91
2021/04/18 12:53:50;;;;;;;7.13;3.83;;;17.30;64.40;;;;;;6157451;23;20029;-86
2021/04/18 12:56:17;;;;;;;8.45;4.00;;;17.30;66.50;;;;;;6154605;23;20041;-88
2021/04/18 12:58:42;;;;;;;8.95;3.70;;;17.40;67.70;;;;;;6154977;23;20330;-87
2021/04/18 13:01:08;;;;;;;7.68;4.20;;;17.40;67.10;;;;;;6154814;23;20017;-89
2021/04/18 13:03:33;;;;;;;8.13;3.90;;;17.50;66.70;;;;;;6153330;23;20373;-87
2021/04/18 13:06:00;;;;;;;8.30;3.92;;;17.50;67.60;;;;;;6155705;23;20018;-87